Terminal Aerodrome Forecast
Issued by NWS

Home | Current Version | Previous Version | Text Only | Print | Product List | Glossary On
Versions: 1 2 3 4 5 6 7 8 9 10 11 12 13 14 15 16 17 18 19 20 21 22 23 24 25 26 27
000
FTUS42 KGSP 221155 CCA
TAFHKY
TAF COR
KHKY 221155Z 2212/2312 VRB04KT 3SM -SHRA BR OVC005
      TEMPO 2212/2215 1SM BR OVC002
     FM221600 09004KT 4SM BR OVC005
     FM222100 09005KT 2SM -SHRA OVC005
     FM230000 09011KT 2SM SHRA BR VCTS OVC005CB
     FM230500 15011KT 1SM BR OVC003
     FM230900 19005KT 1SM -SHRA BR OVC003=

USA.gov is the U.S. government's official web portal to all federal, state and local government web resources and services.